Time;durP1;ratioP1;P1;durP2;ratioP2;P2;SDS_P1;SDS_P2;PMS_P1;PMS_P2;Temp;Humidity;BMP_temperature;BMP_pressure;BME280_temperature;BME280_humidity;BME280_pressure;Samples;Min_cycle;Max_cycle;Signal;HPM_P1;HPM_P2
2022/03/13 00:02:03;;;;;;;108.03;51.63;;;;;;;-2.39;55.44;102681.42;1780375;79;21559;-76
2022/03/13 00:04:30;;;;;;;101.18;48.50;;;;;;;-2.40;55.39;102677.42;1758146;79;21054;-76
2022/03/13 00:06:58;;;;;;;104.35;47.95;;;;;;;-2.42;55.39;102670.80;1814072;78;21792;-76
2022/03/13 00:09:25;;;;;;;104.47;46.98;;;;;;;-2.43;55.40;102670.25;1785812;79;21071;-75
2022/03/13 00:11:53;;;;;;;105.43;49.80;;;;;;;-2.44;55.40;102668.78;1813894;77;20999;-75
2022/03/13 00:14:23;;;;;;;104.50;47.90;;;;;;;-2.44;55.40;102671.36;1813519;78;21768;-75
2022/03/13 00:16:50;;;;;;;104.38;45.80;;;;;;;-2.44;55.42;102675.23;1814196;78;21070;-75
2022/03/13 00:19:20;;;;;;;111.30;48.17;;;;;;;-2.46;55.49;102669.00;1814444;78;21786;-76
2022/03/13 00:21:53;;;;;;;99.70;46.05;;;;;;;-2.49;55.55;102666.11;1814280;78;21075;-75
2022/03/13 00:24:22;;;;;;;104.55;47.58;;;;;;;-2.51;55.57;102668.52;1814169;79;21073;-76
2022/03/13 00:26:51;;;;;;;111.10;49.35;;;;;;;-2.52;55.67;102666.67;1813151;77;21662;-76
2022/03/13 00:29:18;;;;;;;112.45;50.55;;;;;;;-2.52;55.73;102666.67;1785882;78;21073;-76
2022/03/13 00:31:45;;;;;;;124.67;52.20;;;;;;;-2.55;55.85;102667.27;1814557;77;21754;-76
2022/03/13 00:34:12;;;;;;;117.00;52.83;;;;;;;-2.56;56.01;102664.52;1764077;79;21053;-75
2022/03/13 00:36:38;;;;;;;118.75;53.52;;;;;;;-2.58;56.11;102663.44;1811167;79;21111;-75
2022/03/13 00:39:05;;;;;;;115.57;51.20;;;;;;;-2.59;56.19;102666.40;1813489;77;21876;-75
2022/03/13 00:41:32;;;;;;;115.28;53.15;;;;;;;-2.62;56.26;102663.48;1785747;79;21579;-76
2022/03/13 00:43:58;;;;;;;114.15;52.25;;;;;;;-2.64;56.32;102658.53;1814146;78;21715;-76
2022/03/13 00:46:25;;;;;;;128.32;52.85;;;;;;;-2.66;56.41;102653.59;1785554;79;21073;-77
2022/03/13 00:48:52;;;;;;;107.07;47.83;;;;;;;-2.67;56.45;102654.32;1814124;77;21539;-77
2022/03/13 00:51:20;;;;;;;119.77;51.55;;;;;;;-2.68;56.45;102649.93;1785695;79;21570;-76
2022/03/13 00:53:46;;;;;;;117.03;50.23;;;;;;;-2.69;56.49;102651.95;1814285;77;21076;-76
2022/03/13 00:56:13;;;;;;;105.90;48.28;;;;;;;-2.70;56.53;102647.56;1784176;79;21707;-76
2022/03/13 00:58:40;;;;;;;111.85;50.25;;;;;;;-2.71;56.54;102649.59;1778794;80;21053;-77
2022/03/13 01:01:08;;;;;;;106.97;53.87;;;;;;;-2.71;56.61;102650.87;1772300;80;21073;-77
2022/03/13 01:03:47;;;;;;;102.32;47.35;;;;;;;-2.74;56.68;102646.31;1772619;80;21049;-76
2022/03/13 01:06:14;;;;;;;104.27;48.38;;;;;;;-2.75;56.68;102644.47;1740860;80;21401;-76
2022/03/13 01:08:41;;;;;;;94.32;43.70;;;;;;;-2.77;56.63;102645.97;1755369;80;21803;-76
2022/03/13 01:11:07;;;;;;;95.28;46.15;;;;;;;-2.77;56.64;102642.10;1763487;80;21036;-76
2022/03/13 01:13:35;;;;;;;98.12;44.63;;;;;;;-2.78;56.62;102643.22;1761418;80;21736;-76
2022/03/13 01:16:17;;;;;;;97.88;44.42;;;;;;;-2.81;56.62;102637.38;1762440;81;21058;-76
2022/03/13 01:18:51;;;;;;;110.57;46.55;;;;;;;-2.81;56.60;102641.23;1762200;80;21090;-76
2022/03/13 01:21:17;;;;;;;112.40;49.15;;;;;;;-2.83;56.67;102642.73;1762454;81;22593;-77
2022/03/13 01:24:17;;;;;;;107.32;46.25;;;;;;;-2.85;56.69;102640.72;1756699;80;21061;-76
2022/03/13 01:26:43;;;;;;;107.83;46.88;;;;;;;-2.88;56.73;102643.88;1754206;81;21125;-76
2022/03/13 01:29:14;;;;;;;95.38;43.28;;;;;;;-2.89;56.77;102638.56;1762102;80;21030;-77
2022/03/13 01:31:46;;;;;;;98.40;43.75;;;;;;;-2.90;56.79;102638.03;1762281;81;21081;-76
2022/03/13 01:34:35;;;;;;;102.53;43.90;;;;;;;-2.91;56.74;102637.48;1737950;81;22454;-76
2022/03/13 01:37:08;;;;;;;84.62;38.02;;;;;;;-2.92;56.75;102643.40;1723210;81;21344;-75
2022/03/13 01:39:35;;;;;;;80.47;37.30;;;;;;;-2.96;56.71;102637.90;1762184;81;21070;-75
2022/03/13 01:42:01;;;;;;;83.37;39.25;;;;;;;-2.95;56.72;102641.38;1762036;81;21117;-76
2022/03/13 01:44:29;;;;;;;79.75;36.25;;;;;;;-2.96;56.71;102635.70;1762005;80;21464;-76
2022/03/13 01:46:55;;;;;;;80.55;36.25;;;;;;;-2.96;56.73;102638.28;1762167;81;21832;-76
2022/03/13 01:49:22;;;;;;;84.22;36.90;;;;;;;-2.98;56.71;102639.39;1762162;81;21050;-75
2022/03/13 01:51:49;;;;;;;81.40;37.00;;;;;;;-2.98;56.72;102634.63;1762412;81;21101;-75
2022/03/13 01:54:15;;;;;;;84.13;37.38;;;;;;;-2.96;56.87;102634.41;1762460;81;21722;-75
2022/03/13 01:56:42;;;;;;;84.30;36.70;;;;;;;-2.94;56.84;102627.38;1755177;81;21622;-76
2022/03/13 01:59:10;;;;;;;77.37;36.35;;;;;;;-2.92;56.81;102626.65;1730303;80;21754;-76
2022/03/13 02:01:37;;;;;;;76.17;36.80;;;;;;;-2.94;56.83;102629.05;1774493;79;21077;-76
2022/03/13 02:04:04;;;;;;;76.42;37.28;;;;;;;-2.95;56.89;102634.59;1737874;81;21455;-76
2022/03/13 02:06:30;;;;;;;77.80;35.92;;;;;;;-2.94;57.04;102631.62;1688208;82;21032;-75
2022/03/13 02:08:57;;;;;;;75.83;37.40;;;;;;;-2.95;57.00;102631.07;1706422;83;21149;-75
2022/03/13 02:11:26;;;;;;;83.27;37.35;;;;;;;-2.99;57.07;102631.11;1706452;83;22574;-75
2022/03/13 02:13:54;;;;;;;80.28;36.65;;;;;;;-2.98;57.04;102632.95;1721456;82;38038;-75
2022/03/13 02:16:21;;;;;;;77.78;37.65;;;;;;;-3.04;56.97;102636.16;1722533;82;21524;-74
2022/03/13 02:18:52;;;;;;;81.42;36.98;;;;;;;-3.05;57.24;102639.84;1722153;81;21626;-75
2022/03/13 02:21:21;;;;;;;82.25;37.53;;;;;;;-3.06;57.26;102645.38;1745318;80;21359;-77
2022/03/13 02:23:48;;;;;;;76.42;36.28;;;;;;;-3.11;57.35;102639.19;1713845;82;21949;-76
2022/03/13 02:26:15;;;;;;;81.82;39.50;;;;;;;-3.13;57.58;102641.58;1745523;80;21091;-77
2022/03/13 02:28:51;;;;;;;98.37;42.67;;;;;;;-3.14;57.65;102648.38;1714447;82;21057;-77
2022/03/13 02:31:32;;;;;;;90.83;42.33;;;;;;;-3.14;57.75;102647.47;1745664;80;21106;-77
2022/03/13 02:33:59;;;;;;;89.97;41.90;;;;;;;-3.14;57.80;102644.89;1714305;82;21117;-77
2022/03/13 02:36:40;;;;;;;88.78;41.23;;;;;;;-3.18;57.98;102644.02;1742245;81;21743;-77
2022/03/13 02:39:07;;;;;;;87.60;39.92;;;;;;;-3.18;58.11;102644.92;1741475;80;21442;-78
2022/03/13 02:41:34;;;;;;;91.08;41.23;;;;;;;-3.18;58.11;102646.21;1714239;83;21317;-78
2022/03/13 02:44:01;;;;;;;88.97;41.90;;;;;;;-3.21;58.22;102651.39;1745388;80;21679;-77
2022/03/13 02:46:49;;;;;;;83.85;39.63;;;;;;;-3.25;58.33;102650.13;1714217;83;21129;-78
2022/03/13 02:49:19;;;;;;;85.15;40.43;;;;;;;-3.30;58.47;102646.16;1745647;80;21743;-76
2022/03/13 02:51:47;;;;;;;79.35;37.75;;;;;;;-3.31;58.64;102641.73;1714368;83;21069;-75
2022/03/13 02:54:14;;;;;;;78.37;37.03;;;;;;;-3.34;58.68;102645.25;1745915;80;21134;-76
2022/03/13 02:56:41;;;;;;;74.35;36.70;;;;;;;-3.37;58.67;102640.69;1714312;83;21406;-76
2022/03/13 02:59:09;;;;;;;81.05;36.25;;;;;;;-3.37;58.71;102641.06;1758129;78;21062;-76
2022/03/13 03:01:37;;;;;;;81.70;36.15;;;;;;;-3.36;58.70;102641.24;1774520;79;21730;-76
2022/03/13 03:04:04;;;;;;;79.50;35.88;;;;;;;-3.36;58.69;102640.30;1797475;79;21094;-76
2022/03/13 03:06:32;;;;;;;75.40;36.20;;;;;;;-3.36;58.74;102634.80;1753468;80;21062;-76
2022/03/13 03:09:02;;;;;;;77.50;36.25;;;;;;;-3.38;58.79;102633.73;1797481;79;22406;-76
2022/03/13 03:11:29;;;;;;;80.10;37.48;;;;;;;-3.38;58.83;102639.22;1774231;79;21109;-76
2022/03/13 03:13:56;;;;;;;75.50;35.08;;;;;;;-3.38;58.84;102635.36;1753476;80;21820;-76
2022/03/13 03:16:23;;;;;;;77.27;37.03;;;;;;;-3.39;58.89;102634.84;1797541;78;21031;-76
2022/03/13 03:18:49;;;;;;;74.15;37.00;;;;;;;-3.40;58.85;102642.91;1774877;79;21396;-75
2022/03/13 03:21:16;;;;;;;89.60;38.95;;;;;;;-3.41;58.84;102637.61;1797882;78;21058;-77
2022/03/13 03:23:42;;;;;;;82.00;37.63;;;;;;;-3.40;58.93;102644.20;1774754;79;21121;-76
2022/03/13 03:26:09;;;;;;;78.90;36.55;;;;;;;-3.40;58.90;102646.77;1797516;78;23033;-76
2022/03/13 03:28:36;;;;;;;81.90;36.83;;;;;;;-3.41;58.82;102643.67;1774833;79;22165;-76
2022/03/13 03:31:03;;;;;;;74.40;34.58;;;;;;;-3.40;58.87;102643.29;1797741;78;21030;-77
2022/03/13 03:33:29;;;;;;;75.03;35.85;;;;;;;-3.41;58.84;102642.77;1774961;79;21070;-76
2022/03/13 03:35:56;;;;;;;81.30;35.90;;;;;;;-3.40;58.86;102651.02;1797794;78;21055;-76
2022/03/13 03:38:23;;;;;;;77.12;35.28;;;;;;;-3.42;58.88;102643.11;1774698;80;21768;-76
2022/03/13 03:40:50;;;;;;;76.07;36.93;;;;;;;-3.41;58.89;102641.09;1797502;77;21121;-76
2022/03/13 03:43:17;;;;;;;78.95;36.93;;;;;;;-3.42;58.94;102633.20;1774750;79;21058;-77
2022/03/13 03:45:43;;;;;;;72.00;34.78;;;;;;;-3.43;59.06;102640.02;1797315;78;21038;-76
2022/03/13 03:48:10;;;;;;;66.87;33.67;;;;;;;-3.43;59.10;102637.44;1774756;79;22355;-76
2022/03/13 03:50:37;;;;;;;74.30;34.80;;;;;;;-3.43;59.10;102641.30;1797786;78;21796;-77
2022/03/13 03:53:03;;;;;;;68.10;33.10;;;;;;;-3.44;59.10;102640.74;1774862;79;21799;-77
2022/03/13 03:55:30;;;;;;;78.60;35.73;;;;;;;-3.44;59.07;102636.88;1796641;79;21063;-76
2022/03/13 03:57:57;;;;;;;81.15;36.65;;;;;;;-3.43;59.05;102640.02;1796130;78;21348;-76
2022/03/13 04:00:23;;;;;;;69.85;32.98;;;;;;;-3.43;59.04;102642.59;1818826;77;21083;-76
2022/03/13 04:02:50;;;;;;;75.40;35.20;;;;;;;-3.42;59.05;102643.11;1801552;78;22812;-76
2022/03/13 04:05:17;;;;;;;76.97;35.43;;;;;;;-3.41;59.03;102637.23;1756470;79;21595;-76
2022/03/13 04:07:44;;;;;;;71.00;34.15;;;;;;;-3.41;59.03;102637.23;1797507;78;21388;-76
2022/03/13 04:10:11;;;;;;;73.87;35.05;;;;;;;-3.41;59.05;102638.91;1797388;78;21554;-76
2022/03/13 04:12:38;;;;;;;73.25;35.17;;;;;;;-3.43;59.07;102642.97;1797368;78;21054;-76
2022/03/13 04:15:07;;;;;;;71.55;34.67;;;;;;;-3.43;59.08;102644.26;1774622;79;21755;-76
2022/03/13 04:17:36;;;;;;;72.50;35.08;;;;;;;-3.44;59.07;102639.84;1797626;77;21038;-76
2022/03/13 04:20:06;;;;;;;69.55;34.73;;;;;;;-3.45;59.07;102640.56;1774526;79;21098;-76
2022/03/13 04:22:33;;;;;;;68.33;33.08;;;;;;;-3.45;59.06;102647.95;1797719;78;21489;-76
2022/03/13 04:24:59;;;;;;;69.10;33.00;;;;;;;-3.45;59.02;102645.72;1774968;79;21069;-76
2022/03/13 04:27:27;;;;;;;71.57;32.80;;;;;;;-3.46;58.98;102657.68;1797502;78;22627;-76
2022/03/13 04:29:54;;;;;;;67.75;33.13;;;;;;;-3.46;58.95;102654.20;1774883;79;21034;-77
2022/03/13 04:32:23;;;;;;;72.30;33.80;;;;;;;-3.45;58.95;102662.10;1797761;78;21634;-76
2022/03/13 04:34:49;;;;;;;72.20;34.67;;;;;;;-3.45;58.95;102654.73;1774827;79;21191;-76
2022/03/13 04:37:16;;;;;;;75.80;33.63;;;;;;;-3.44;58.96;102653.62;1796010;78;21064;-76
2022/03/13 04:39:42;;;;;;;76.25;34.63;;;;;;;-3.42;58.99;102655.98;1791347;78;21703;-76
2022/03/13 04:42:09;;;;;;;80.80;35.00;;;;;;;-3.43;58.99;102651.60;1774634;79;21363;-76
2022/03/13 04:44:36;;;;;;;83.12;35.65;;;;;;;-3.43;59.08;102647.73;1797503;78;21555;-77
2022/03/13 04:47:03;;;;;;;81.32;36.35;;;;;;;-3.42;59.09;102646.97;1774557;80;21062;-77
2022/03/13 04:49:29;;;;;;;79.65;36.65;;;;;;;-3.39;59.20;102639.98;1775328;78;21029;-77
2022/03/13 04:51:56;;;;;;;75.87;34.05;;;;;;;-3.40;59.15;102642.91;1774584;79;21713;-77
2022/03/13 04:54:23;;;;;;;74.03;36.55;;;;;;;-3.38;59.32;102651.75;1797374;78;21050;-77
2022/03/13 04:56:49;;;;;;;72.50;34.00;;;;;;;-3.42;59.08;102658.94;1774742;80;21148;-77
2022/03/13 04:59:16;;;;;;;70.52;34.25;;;;;;;-3.49;59.15;102659.94;1797943;78;21102;-77
2022/03/13 05:01:43;;;;;;;79.30;36.98;;;;;;;-3.52;59.29;102658.30;1785670;79;21049;-77
2022/03/13 05:04:10;;;;;;;77.17;37.25;;;;;;;-3.52;59.42;102660.87;1812704;77;22604;-76
2022/03/13 05:06:38;;;;;;;79.05;36.83;;;;;;;-3.48;59.54;102661.75;1785732;79;21033;-76
2022/03/13 05:09:05;;;;;;;86.22;37.93;;;;;;;-3.46;59.56;102660.64;1814372;78;21034;-76
2022/03/13 05:11:32;;;;;;;86.85;38.95;;;;;;;-3.48;59.63;102663.03;1784759;79;21533;-76
2022/03/13 05:13:59;;;;;;;82.82;38.13;;;;;;;-3.45;59.68;102664.68;1794611;79;21646;-75
2022/03/13 05:16:25;;;;;;;90.62;40.05;;;;;;;-3.41;59.70;102663.36;1794666;79;21785;-75
2022/03/13 05:18:52;;;;;;;86.82;40.30;;;;;;;-3.40;59.75;102660.93;1794629;79;20989;-75
2022/03/13 05:21:18;;;;;;;89.22;40.00;;;;;;;-3.36;59.81;102664.42;1794758;79;21040;-76
2022/03/13 05:23:45;;;;;;;84.65;36.85;;;;;;;-3.32;59.78;102664.01;1780485;79;21134;-75
2022/03/13 05:26:12;;;;;;;74.75;36.83;;;;;;;-3.29;59.79;102664.71;1785910;79;21547;-75
2022/03/13 05:28:39;;;;;;;68.72;35.63;;;;;;;-3.25;59.77;102660.44;1786086;79;21783;-75
2022/03/13 05:31:06;;;;;;;77.55;37.90;;;;;;;-3.19;59.76;102661.48;1794867;78;21028;-76
2022/03/13 05:33:32;;;;;;;78.07;37.38;;;;;;;-3.14;59.70;102663.83;1793672;79;21471;-76
2022/03/13 05:35:59;;;;;;;80.07;36.28;;;;;;;-3.05;59.65;102670.77;1801816;78;21041;-76
2022/03/13 05:38:25;;;;;;;81.82;38.35;;;;;;;-2.99;59.55;102669.75;1757356;80;21554;-76
2022/03/13 05:40:52;;;;;;;77.62;38.45;;;;;;;-2.93;59.50;102673.38;1785660;79;21761;-78
2022/03/13 05:43:21;;;;;;;76.12;36.28;;;;;;;-2.87;59.49;102676.66;1795065;78;21186;-77
2022/03/13 05:45:48;;;;;;;86.82;38.35;;;;;;;-2.79;59.43;102679.69;1795086;79;21578;-75
2022/03/13 05:48:17;;;;;;;83.03;37.80;;;;;;;-2.71;59.36;102683.09;1794987;79;21044;-76
2022/03/13 05:50:42;;;;;;;79.40;38.80;;;;;;;-2.63;59.33;102683.58;1794693;79;21700;-75
2022/03/13 05:53:09;;;;;;;79.00;38.10;;;;;;;-2.58;59.32;102683.68;1794929;79;21736;-75
2022/03/13 05:55:36;;;;;;;70.25;36.08;;;;;;;-2.50;59.29;102685.80;1794697;79;21610;-77
2022/03/13 05:58:02;;;;;;;93.35;42.30;;;;;;;-2.42;59.25;102684.05;1785573;80;21528;-77
2022/03/13 06:00:32;;;;;;;105.30;48.68;;;;;;;-2.33;59.19;102677.69;1783086;78;21037;-75
2022/03/13 06:02:58;;;;;;;114.42;52.43;;;;;;;-2.25;59.14;102681.64;1764958;80;21051;-76
2022/03/13 06:05:25;;;;;;;112.37;51.35;;;;;;;-2.18;59.10;102679.33;1766990;81;22706;-75
2022/03/13 06:07:52;;;;;;;116.53;52.50;;;;;;;-2.12;59.02;102677.42;1767478;81;21081;-75
2022/03/13 06:10:18;;;;;;;103.58;49.38;;;;;;;-2.06;58.91;102679.74;1767458;81;21034;-75
2022/03/13 06:12:45;;;;;;;108.17;48.28;;;;;;;-2.00;58.90;102682.58;1767453;80;21053;-75
2022/03/13 06:15:12;;;;;;;106.92;50.55;;;;;;;-1.92;58.90;102679.91;1767492;80;21041;-76
2022/03/13 06:17:43;;;;;;;105.10;49.20;;;;;;;-1.84;58.86;102682.56;1767216;79;23156;-76
2022/03/13 06:20:11;;;;;;;105.63;49.93;;;;;;;-1.76;58.80;102679.11;1767114;79;21082;-76
2022/03/13 06:22:40;;;;;;;112.10;49.50;;;;;;;-1.67;58.75;102683.40;1767087;80;21154;-77
2022/03/13 06:25:09;;;;;;;109.95;48.52;;;;;;;-1.61;58.69;102687.55;1766568;80;21120;-77
2022/03/13 06:27:36;;;;;;;107.47;51.80;;;;;;;-1.52;58.63;102694.06;1762452;78;21018;-77
2022/03/13 06:30:14;;;;;;;106.07;50.75;;;;;;;-1.43;58.56;102700.16;1766411;81;21751;-76
2022/03/13 06:32:41;;;;;;;109.85;50.98;;;;;;;-1.35;58.48;102698.77;1765674;80;21137;-76
2022/03/13 06:35:08;;;;;;;123.05;60.15;;;;;;;-1.27;58.42;102706.57;1767304;80;21069;-76
2022/03/13 06:37:36;;;;;;;116.12;55.78;;;;;;;-1.19;58.38;102710.85;1764862;81;21606;-77
2022/03/13 06:40:03;;;;;;;107.70;58.95;;;;;;;-1.11;58.29;102714.22;1767073;80;21768;-77
2022/03/13 06:42:30;;;;;;;118.85;59.08;;;;;;;-1.02;58.25;102712.98;1743049;81;21744;-77
2022/03/13 06:44:56;;;;;;;108.97;54.60;;;;;;;-0.92;58.19;102714.48;1767351;80;21053;-76
2022/03/13 06:47:23;;;;;;;104.15;53.83;;;;;;;-0.79;58.06;102711.45;1767064;80;20987;-77
2022/03/13 06:49:50;;;;;;;107.58;52.08;;;;;;;-0.69;57.96;102702.98;1767664;80;21033;-75
2022/03/13 06:52:17;;;;;;;96.82;51.40;;;;;;;-0.62;57.98;102707.64;1767591;79;21315;-76
2022/03/13 06:54:43;;;;;;;114.20;55.63;;;;;;;-0.52;57.95;102709.47;1767665;80;21750;-75
2022/03/13 06:57:11;;;;;;;107.27;54.42;;;;;;;-0.42;57.91;102709.62;1767270;80;21050;-75
2022/03/13 06:59:37;;;;;;;102.50;50.15;;;;;;;-0.30;57.92;102708.67;1767522;80;21049;-75
2022/03/13 07:02:04;;;;;;;101.85;47.78;;;;;;;-0.20;57.76;102707.52;1767090;80;20967;-75
2022/03/13 07:04:30;;;;;;;96.92;48.42;;;;;;;-0.08;57.52;102709.50;1767205;80;21069;-75
2022/03/13 07:06:58;;;;;;;97.85;45.45;;;;;;;0.02;57.30;102710.97;1767182;79;21806;-75
2022/03/13 07:09:26;;;;;;;100.25;49.42;;;;;;;0.14;57.14;102710.86;1767317;81;21022;-75
2022/03/13 07:11:52;;;;;;;92.67;45.52;;;;;;;0.25;57.02;102708.42;1756670;80;21183;-75
2022/03/13 07:14:21;;;;;;;109.12;55.23;;;;;;;0.36;56.95;102703.91;1743533;81;22000;-76
2022/03/13 07:16:48;;;;;;;107.17;53.23;;;;;;;0.49;56.98;102709.52;1767140;80;21073;-76
2022/03/13 07:19:15;;;;;;;91.17;47.93;;;;;;;0.62;56.95;102707.73;1743471;81;21719;-76
2022/03/13 07:21:41;;;;;;;88.87;46.77;;;;;;;0.73;56.86;102704.50;1767252;80;21082;-76
2022/03/13 07:24:08;;;;;;;87.00;42.53;;;;;;;0.84;56.65;102708.09;1767285;80;21069;-76
2022/03/13 07:26:36;;;;;;;91.15;43.38;;;;;;;0.96;56.29;102707.08;1767168;80;21621;-77
2022/03/13 07:29:04;;;;;;;85.70;43.28;;;;;;;1.06;55.88;102708.85;1767346;80;21089;-76
2022/03/13 07:31:31;;;;;;;77.80;41.48;;;;;;;1.16;55.75;102712.83;1767371;80;21755;-74
2022/03/13 07:33:58;;;;;;;83.10;41.85;;;;;;;1.25;55.41;102703.32;1767406;79;22414;-75
2022/03/13 07:36:25;;;;;;;76.05;41.15;;;;;;;1.36;55.31;102706.93;1767707;80;21583;-74
2022/03/13 07:38:52;;;;;;;73.17;38.85;;;;;;;1.49;55.09;102712.49;1767440;81;21019;-75
2022/03/13 07:41:18;;;;;;;81.92;41.20;;;;;;;1.58;54.73;102708.55;1767281;81;21049;-75
2022/03/13 07:43:45;;;;;;;80.75;40.48;;;;;;;1.72;54.51;102713.70;1767387;80;21690;-75
2022/03/13 07:46:12;;;;;;;71.97;38.20;;;;;;;1.81;54.12;102705.47;1767191;80;21061;-75
2022/03/13 07:48:38;;;;;;;74.15;39.38;;;;;;;1.91;53.91;102708.12;1767311;80;21093;-75
2022/03/13 07:51:07;;;;;;;82.50;40.67;;;;;;;2.00;53.71;102715.84;1767344;80;21081;-75
2022/03/13 07:53:34;;;;;;;74.03;35.35;;;;;;;2.10;53.50;102710.73;1767350;81;21042;-76
2022/03/13 07:56:01;;;;;;;68.83;36.63;;;;;;;2.19;52.98;102713.63;1767027;79;22527;-75
2022/03/13 07:58:28;;;;;;;68.25;35.58;;;;;;;2.28;52.82;102711.86;1767328;80;21034;-75
2022/03/13 08:00:55;;;;;;;73.28;39.60;;;;;;;2.36;52.73;102713.44;1767166;80;21010;-75
2022/03/13 08:03:25;;;;;;;72.72;37.93;;;;;;;2.46;52.86;102717.41;1767070;81;21505;-76
2022/03/13 08:05:52;;;;;;;68.92;37.23;;;;;;;2.56;52.71;102715.63;1740278;79;21551;-75
2022/03/13 08:08:19;;;;;;;74.45;38.67;;;;;;;2.65;52.62;102712.55;1767652;80;22584;-75
2022/03/13 08:10:46;;;;;;;62.25;33.42;;;;;;;2.74;52.54;102710.77;1765338;80;21043;-75
2022/03/13 08:13:12;;;;;;;59.50;34.15;;;;;;;2.84;52.17;102711.17;1765556;79;21578;-85
2022/03/13 08:15:39;;;;;;;60.52;32.78;;;;;;;2.95;51.96;102709.13;1764250;80;21065;-77
2022/03/13 08:18:06;;;;;;;58.58;32.75;;;;;;;3.06;51.72;102704.83;1767524;80;21057;-80
2022/03/13 08:20:33;;;;;;;57.75;33.10;;;;;;;3.19;51.47;102705.50;1763990;80;21762;-80
2022/03/13 08:23:00;;;;;;;60.20;31.25;;;;;;;3.29;51.28;102702.94;1763477;79;21041;-80
2022/03/13 08:25:26;;;;;;;52.60;27.48;;;;;;;3.39;51.04;102702.92;1767664;81;21049;-80
2022/03/13 08:27:53;;;;;;;48.42;25.48;;;;;;;3.50;50.39;102700.84;1767653;80;21069;-79
2022/03/13 08:30:19;;;;;;;48.75;25.27;;;;;;;3.60;49.94;102702.92;1767780;81;21174;-80
2022/03/13 08:32:46;;;;;;;42.33;23.67;;;;;;;3.67;49.70;102698.36;1767570;80;22551;-80
2022/03/13 08:35:13;;;;;;;49.45;22.98;;;;;;;3.76;49.30;102695.63;1767372;79;21464;-80
2022/03/13 08:37:39;;;;;;;44.08;25.05;;;;;;;3.84;49.25;102696.27;1767384;81;21655;-82
2022/03/13 08:40:09;;;;;;;51.95;27.20;;;;;;;3.92;49.25;102693.89;1760193;79;21075;-81
2022/03/13 08:42:36;;;;;;;54.77;27.35;;;;;;;4.00;48.99;102689.34;1759869;79;21105;-78
2022/03/13 08:45:03;;;;;;;44.40;24.18;;;;;;;4.04;48.93;102689.72;1770532;79;21746;-77
2022/03/13 08:47:30;;;;;;;42.83;24.45;;;;;;;4.13;48.76;102687.33;1767200;80;21038;-79
2022/03/13 08:49:57;;;;;;;43.98;24.07;;;;;;;4.23;48.73;102688.22;1767182;80;21105;-78
2022/03/13 08:52:23;;;;;;;46.65;24.12;;;;;;;4.31;48.40;102687.53;1767301;80;21528;-78
2022/03/13 08:54:50;;;;;;;35.15;20.90;;;;;;;4.36;48.06;102681.02;1767319;81;21104;-78
2022/03/13 08:57:17;;;;;;;34.20;20.32;;;;;;;4.45;47.95;102686.97;1766632;81;21792;-78
2022/03/13 08:59:43;;;;;;;35.45;22.10;;;;;;;4.53;47.81;102689.30;1767224;80;21087;-79
2022/03/13 09:02:10;;;;;;;38.13;22.67;;;;;;;4.60;47.77;102688.60;1767192;80;21022;-79
2022/03/13 09:04:37;;;;;;;41.50;25.55;;;;;;;4.69;47.74;102698.84;1767496;80;21528;-79
2022/03/13 09:07:03;;;;;;;40.60;21.70;;;;;;;4.79;47.70;102697.91;1767286;81;20975;-78
2022/03/13 09:09:30;;;;;;;44.58;23.83;;;;;;;4.90;47.53;102699.67;1767215;81;21754;-79
2022/03/13 09:11:58;;;;;;;39.55;22.75;;;;;;;4.99;47.34;102691.63;1766572;80;21058;-79
2022/03/13 09:14:26;;;;;;;42.90;24.92;;;;;;;5.05;47.19;102695.65;1766809;80;21053;-78
2022/03/13 09:16:53;;;;;;;46.48;25.80;;;;;;;5.14;47.04;102699.76;1767089;80;21049;-78
2022/03/13 09:19:20;;;;;;;42.50;24.92;;;;;;;5.23;46.78;102703.09;1767323;80;21113;-77
2022/03/13 09:21:47;;;;;;;39.23;24.00;;;;;;;5.28;46.63;102703.47;1767432;80;21759;-83
2022/03/13 09:24:14;;;;;;;48.48;27.52;;;;;;;5.33;46.45;102700.42;1767107;80;21057;-79
2022/03/13 09:26:40;;;;;;;45.30;25.60;;;;;;;5.38;46.41;102700.77;1767343;80;20986;-79
2022/03/13 09:29:07;;;;;;;41.77;25.75;;;;;;;5.45;46.44;102701.75;1767442;81;21357;-79
2022/03/13 09:31:34;;;;;;;46.08;25.32;;;;;;;5.40;46.35;102681.80;1767362;81;21131;-81
2022/03/13 09:34:01;;;;;;;38.02;24.05;;;;;;;5.54;46.21;102703.77;1767289;79;21783;-80
2022/03/13 09:36:27;;;;;;;44.03;24.37;;;;;;;5.60;46.18;102702.92;1767492;80;21042;-80
2022/03/13 09:38:54;;;;;;;42.15;25.77;;;;;;;5.66;46.19;102697.26;1767391;79;21094;-80
2022/03/13 09:41:21;;;;;;;42.45;24.92;;;;;;;5.72;46.21;102695.10;1767369;81;21512;-79
2022/03/13 09:43:47;;;;;;;41.98;24.60;;;;;;;5.78;46.10;102696.90;1766197;80;21349;-79
2022/03/13 09:46:19;;;;;;;36.45;23.98;;;;;;;5.82;45.91;102694.13;1766988;80;21735;-81
2022/03/13 09:48:46;;;;;;;41.20;24.07;;;;;;;5.87;45.64;102691.84;1767098;80;21014;-79
2022/03/13 09:51:12;;;;;;;46.80;27.13;;;;;;;5.92;45.57;102693.10;1763392;80;21539;-79
2022/03/13 09:53:39;;;;;;;44.95;25.40;;;;;;;5.98;45.57;102693.59;1767509;80;21061;-79
2022/03/13 09:56:06;;;;;;;45.78;25.60;;;;;;;6.05;45.49;102688.02;1767576;80;21058;-79
2022/03/13 09:58:32;;;;;;;40.67;22.48;;;;;;;6.13;45.41;102690.80;1767804;80;22559;-79
2022/03/13 10:00:59;;;;;;;44.98;25.23;;;;;;;6.17;44.79;102687.61;1767691;80;21136;-80
2022/03/13 10:03:26;;;;;;;39.98;24.63;;;;;;;6.28;44.69;102683.59;1767403;81;21049;-80
2022/03/13 10:05:55;;;;;;;46.88;27.80;;;;;;;6.37;44.63;102684.27;1765626;80;21532;-80
2022/03/13 10:08:31;;;;;;;45.15;25.65;;;;;;;6.43;44.61;102686.01;1764402;80;21073;-81
2022/03/13 10:10:59;;;;;;;46.50;25.40;;;;;;;6.51;44.48;102688.77;1765307;81;22569;-81
2022/03/13 10:13:45;;;;;;;41.40;24.63;;;;;;;6.59;44.32;102675.86;1767597;81;21117;-81
2022/03/13 10:16:18;;;;;;;41.33;23.87;;;;;;;6.69;44.03;102677.42;1767476;80;21051;-81
2022/03/13 10:18:44;;;;;;;32.80;21.73;;;;;;;6.75;43.67;102673.03;1767749;80;21578;-81
2022/03/13 10:21:13;;;;;;;36.55;22.60;;;;;;;6.79;43.49;102670.76;1767745;79;21006;-81
2022/03/13 10:23:40;;;;;;;36.58;22.52;;;;;;;6.85;43.25;102668.98;1767658;79;21792;-80
2022/03/13 10:26:07;;;;;;;34.08;22.27;;;;;;;6.92;43.25;102667.69;1767598;81;21051;-81
2022/03/13 10:28:37;;;;;;;41.10;25.05;;;;;;;6.98;43.14;102658.94;1767713;80;20994;-81
2022/03/13 10:31:15;;;;;;;33.10;19.82;;;;;;;7.06;43.04;102665.64;1767681;78;21284;-80
2022/03/13 10:33:47;;;;;;;36.68;19.48;;;;;;;7.12;42.68;102669.09;1767619;80;20987;-81
2022/03/13 10:36:31;;;;;;;30.30;19.65;;;;;;;7.13;42.28;102659.11;1767695;80;21065;-81
2022/03/13 10:38:54;;;;;;;32.00;19.00;;;;;;;7.16;42.07;102658.92;1767271;81;21702;-81
2022/03/13 10:41:23;;;;;;;30.85;19.55;;;;;;;7.22;41.78;102657.13;1767384;80;21022;-81
2022/03/13 10:43:57;;;;;;;28.57;17.48;;;;;;;7.26;41.41;102654.32;1711152;81;21081;-81
2022/03/13 10:46:31;;;;;;;30.10;18.25;;;;;;;7.28;41.17;102659.27;1767455;80;21062;-81
2022/03/13 10:48:59;;;;;;;;;;;;;;;7.29;40.78;102658.47;1769457;81;21959;-80
2022/03/13 10:51:45;;;;;;;33.02;18.10;;;;;;;7.31;40.34;102652.94;1767662;80;21547;-80
2022/03/13 10:54:10;;;;;;;28.27;17.00;;;;;;;7.33;40.49;102657.47;1763150;78;20994;-78
2022/03/13 10:56:37;;;;;;;24.37;17.52;;;;;;;7.41;40.28;102656.68;1712074;82;21428;-80
2022/03/13 10:59:17;;;;;;;31.50;18.65;;;;;;;7.47;39.91;102649.27;1759339;81;21500;-81
2022/03/13 11:01:44;;;;;;;27.25;18.37;;;;;;;7.51;39.93;102648.66;1731733;80;21718;-79
2022/03/13 11:04:15;;;;;;;31.17;18.42;;;;;;;7.59;39.97;102642.63;1788852;79;21451;-79
2022/03/13 11:06:39;;;;;;;29.15;17.30;;;;;;;7.64;39.75;102637.67;1768872;78;21601;-79
2022/03/13 11:09:06;;;;;;;24.07;15.98;;;;;;;7.67;39.27;102636.17;1783256;79;21030;-79
2022/03/13 11:11:34;;;;;;;25.65;16.93;;;;;;;7.73;39.14;102633.05;1788899;78;21061;-82
2022/03/13 11:14:02;;;;;;;23.45;15.90;;;;;;;7.79;38.89;102637.00;1789178;79;21774;-80
2022/03/13 11:16:31;;;;;;;21.62;14.38;;;;;;;7.84;38.59;102639.92;1774922;79;21133;-79